Time;durP1;ratioP1;P1;durP2;ratioP2;P2;SDS_P1;SDS_P2;PMS_P1;PMS_P2;Temp;Humidity;BMP_temperature;BMP_pressure;BME280_temperature;BME280_humidity;BME280_pressure;Samples;Min_cycle;Max_cycle;Signal;HPM_P1;HPM_P2
2023/09/01 00:00:14;;;;;;;2.90;2.70;;;;;;;;;;2079114;28;20120;-70
2023/09/01 00:01:33;;;;;;;2.58;2.47;;;;;;;;;;2077801;28;20025;-68
2023/09/01 00:02:52;;;;;;;4.50;2.67;;;;;;;;;;2077713;28;20113;-69
2023/09/01 00:04:11;;;;;;;2.50;2.30;;;;;;;;;;2075308;28;20033;-69
2023/09/01 00:05:32;;;;;;;2.83;2.53;;;;;;;;;;2079660;28;20061;-65
2023/09/01 00:06:51;;;;;;;3.38;2.33;;;;;;;;;;2077623;28;20057;-67
2023/09/01 00:08:10;;;;;;;2.80;2.60;;;;;;;;;;2078956;28;20021;-69
2023/09/01 00:09:29;;;;;;;2.30;2.20;;;;;;;;;;2080271;28;20029;-70
2023/09/01 00:10:48;;;;;;;6.90;2.80;;;;;;;;;;2078892;28;20041;-67
2023/09/01 00:12:07;;;;;;;2.53;2.33;;;;;;;;;;2077701;28;20033;-68
2023/09/01 00:13:26;;;;;;;3.28;2.35;;;;;;;;;;2077538;28;20112;-64
2023/09/01 00:14:45;;;;;;;2.30;2.20;;;;;;;;;;2078319;28;20026;-70
2023/09/01 00:16:04;;;;;;;2.63;1.90;;;;;;;;;;2078801;28;20025;-69
2023/09/01 00:17:23;;;;;;;2.63;2.20;;;;;;;;;;2076478;28;20021;-69
2023/09/01 00:18:42;;;;;;;2.85;2.35;;;;;;;;;;2076300;28;20045;-67
2023/09/01 00:20:01;;;;;;;4.28;2.20;;;;;;;;;;2074866;28;20079;-68
2023/09/01 00:21:20;;;;;;;4.03;2.33;;;;;;;;;;2077958;28;20037;-68
2023/09/01 00:22:39;;;;;;;7.65;2.75;;;;;;;;;;2075791;28;20029;-67
2023/09/01 00:23:58;;;;;;;4.13;2.28;;;;;;;;;;2077508;28;20441;-68
2023/09/01 00:25:17;;;;;;;2.95;2.38;;;;;;;;;;2079754;28;20017;-67
2023/09/01 00:26:35;;;;;;;7.32;2.80;;;;;;;;;;2080679;28;20029;-69
2023/09/01 00:27:54;;;;;;;3.10;2.90;;;;;;;;;;2080004;28;20053;-69
2023/09/01 00:29:13;;;;;;;2.67;2.47;;;;;;;;;;2078118;28;20030;-69
2023/09/01 00:30:32;;;;;;;3.75;2.50;;;;;;;;;;2079639;28;20029;-70
2023/09/01 00:31:51;;;;;;;2.80;2.60;;;;;;;;;;2077904;28;20038;-64
2023/09/01 00:33:10;;;;;;;3.38;3.08;;;;;;;;;;2075418;28;20034;-69
2023/09/01 00:34:30;;;;;;;3.65;2.60;;;;;;;;;;2076085;28;20026;-69
2023/09/01 00:35:50;;;;;;;4.22;2.90;;;;;;;;;;2079785;28;20433;-68
2023/09/01 00:37:09;;;;;;;2.97;2.78;;;;;;;;;;2076873;28;20025;-68
2023/09/01 00:38:30;;;;;;;5.35;2.60;;;;;;;;;;2078706;28;20034;-68
2023/09/01 00:39:48;;;;;;;6.65;2.75;;;;;;;;;;2079015;28;20383;-68
2023/09/01 00:41:07;;;;;;;3.70;2.60;;;;;;;;;;2078285;28;20030;-71
2023/09/01 00:42:26;;;;;;;2.80;2.60;;;;;;;;;;2077547;28;20034;-69
2023/09/01 00:43:45;;;;;;;6.03;2.58;;;;;;;;;;2069972;28;20033;-68
2023/09/01 00:45:04;;;;;;;3.25;2.80;;;;;;;;;;2075381;28;20022;-65
2023/09/01 00:46:25;;;;;;;3.25;2.95;;;;;;;;;;2071535;28;20121;-69
2023/09/01 00:47:44;;;;;;;3.47;2.30;;;;;;;;;;2074104;28;20486;-66
2023/09/01 00:49:03;;;;;;;3.00;2.30;;;;;;;;;;2078081;28;20061;-69
2023/09/01 00:50:22;;;;;;;4.15;2.95;;;;;;;;;;2078452;28;20029;-68
2023/09/01 00:51:41;;;;;;;2.45;2.35;;;;;;;;;;2077393;28;20029;-68
2023/09/01 00:53:00;;;;;;;3.20;2.25;;;;;;;;;;2075618;28;20108;-69
2023/09/01 00:54:19;;;;;;;2.33;2.22;;;;;;;;;;2076817;28;20026;-69
2023/09/01 00:55:39;;;;;;;2.65;2.45;;;;;;;;;;2076888;28;20085;-69
2023/09/01 00:56:59;;;;;;;2.80;2.60;;;;;;;;;;2080195;28;20029;-70
2023/09/01 00:58:18;;;;;;;2.65;2.38;;;;;;;;;;2077080;28;20025;-69
2023/09/01 00:59:37;;;;;;;3.83;2.83;;;;;;;;;;2077786;28;20025;-69
2023/09/01 01:00:58;;;;;;;6.22;2.53;;;;;;;;;;2078439;28;20470;-68
2023/09/01 01:02:17;;;;;;;2.75;2.50;;;;;;;;;;2076468;28;20117;-68
2023/09/01 01:03:36;;;;;;;2.40;2.25;;;;;;;;;;2078064;28;20056;-70
2023/09/01 01:04:56;;;;;;;4.07;2.03;;;;;;;;;;2074539;28;20112;-66
2023/09/01 01:06:32;;;;;;;3.72;2.33;;;;;;;;;;2074669;28;20030;-65
2023/09/01 01:08:00;;;;;;;5.20;2.60;;;;;;;;;;2076383;28;20030;-68
2023/09/01 01:09:34;;;;;;;2.45;2.30;;;;;;;;;;2076475;28;20106;-68
2023/09/01 01:10:56;;;;;;;2.33;2.20;;;;;;;;;;2076840;28;20037;-68
2023/09/01 01:12:28;;;;;;;4.18;2.13;;;;;;;;;;2077277;28;20858;-69
2023/09/01 01:13:52;;;;;;;4.13;2.55;;;;;;;;;;2078003;28;20030;-68
2023/09/01 01:15:13;;;;;;;2.40;2.20;;;;;;;;;;2078474;28;20029;-68
2023/09/01 01:16:32;;;;;;;3.70;2.15;;;;;;;;;;2070921;28;20034;-66
2023/09/01 01:17:54;;;;;;;2.70;2.47;;;;;;;;;;2075165;28;20433;-69
2023/09/01 01:19:36;;;;;;;5.22;2.30;;;;;;;;;;2077004;28;20029;-68
2023/09/01 01:21:10;;;;;;;2.60;2.38;;;;;;;;;;2077068;28;20037;-69
2023/09/01 01:22:40;;;;;;;5.68;2.53;;;;;;;;;;2076295;28;20033;-68
2023/09/01 01:24:00;;;;;;;3.28;2.30;;;;;;;;;;2077691;28;20053;-67
2023/09/01 01:25:20;;;;;;;5.57;2.47;;;;;;;;;;2077184;28;20382;-69
2023/09/01 01:26:39;;;;;;;3.30;2.42;;;;;;;;;;2077460;28;20018;-67
2023/09/01 01:28:05;;;;;;;7.88;2.30;;;;;;;;;;2077399;28;20421;-67
2023/09/01 01:29:23;;;;;;;6.35;2.33;;;;;;;;;;2077054;28;20077;-64
2023/09/01 01:30:46;;;;;;;2.28;2.10;;;;;;;;;;2077488;28;20706;-69
2023/09/01 01:32:05;;;;;;;2.15;1.95;;;;;;;;;;2074887;28;20022;-67
2023/09/01 01:33:36;;;;;;;2.30;2.13;;;;;;;;;;2069084;28;20030;-69
2023/09/01 01:35:04;;;;;;;2.67;2.13;;;;;;;;;;2073627;28;20025;-69
2023/09/01 01:36:29;;;;;;;3.58;2.38;;;;;;;;;;2076380;28;20025;-67
2023/09/01 01:37:57;;;;;;;3.88;2.50;;;;;;;;;;2064128;28;20030;-66
2023/09/01 01:39:18;;;;;;;9.25;2.72;;;;;;;;;;2075002;28;21293;-67
2023/09/01 01:40:37;;;;;;;5.88;2.45;;;;;;;;;;2077161;28;20037;-68
2023/09/01 01:42:09;;;;;;;4.05;2.40;;;;;;;;;;2075532;28;20104;-67
2023/09/01 01:43:28;;;;;;;12.07;3.08;;;;;;;;;;2069521;28;20112;-69
2023/09/01 01:44:49;;;;;;;4.82;2.47;;;;;;;;;;2073476;28;20033;-61
2023/09/01 01:46:08;;;;;;;5.10;2.30;;;;;;;;;;2078928;28;20085;-69
2023/09/01 01:47:27;;;;;;;4.03;2.28;;;;;;;;;;2076058;28;20459;-67
2023/09/01 01:48:46;;;;;;;5.43;2.30;;;;;;;;;;2078006;28;20052;-68
2023/09/01 01:50:05;;;;;;;3.53;2.08;;;;;;;;;;2077458;28;20513;-64
2023/09/01 01:51:24;;;;;;;2.45;1.83;;;;;;;;;;2078140;28;20115;-67
2023/09/01 01:52:43;;;;;;;8.40;1.95;;;;;;;;;;2070285;28;20058;-68
2023/09/01 01:54:03;;;;;;;2.40;2.20;;;;;;;;;;2073734;28;20125;-68
2023/09/01 01:55:22;;;;;;;6.05;2.40;;;;;;;;;;2077593;28;20037;-68
2023/09/01 01:56:41;;;;;;;3.70;2.20;;;;;;;;;;2077249;28;20479;-65
2023/09/01 01:58:00;;;;;;;3.33;2.22;;;;;;;;;;2076316;28;20073;-69
2023/09/01 01:59:19;;;;;;;2.45;2.10;;;;;;;;;;2079249;28;20030;-66
2023/09/01 02:00:38;;;;;;;2.30;2.10;;;;;;;;;;2077939;28;20021;-67
2023/09/01 02:01:58;;;;;;;2.83;2.40;;;;;;;;;;2076792;28;21568;-66
2023/09/01 02:03:17;;;;;;;3.35;1.98;;;;;;;;;;2077920;28;20022;-64
2023/09/01 02:04:36;;;;;;;2.75;2.38;;;;;;;;;;2076866;28;20041;-66
2023/09/01 02:05:55;;;;;;;2.22;1.92;;;;;;;;;;2078854;28;20090;-68
2023/09/01 02:07:14;;;;;;;3.70;2.47;;;;;;;;;;2077485;28;20077;-64
2023/09/01 02:08:33;;;;;;;2.58;1.90;;;;;;;;;;2079200;28;20514;-68
2023/09/01 02:09:52;;;;;;;2.70;2.35;;;;;;;;;;2079962;28;20041;-67
2023/09/01 02:11:11;;;;;;;3.10;2.03;;;;;;;;;;2078551;28;20507;-66
2023/09/01 02:12:30;;;;;;;4.07;2.22;;;;;;;;;;2077418;28;20030;-68
2023/09/01 02:13:49;;;;;;;2.10;1.80;;;;;;;;;;2077707;28;20033;-66
2023/09/01 02:15:09;;;;;;;5.07;2.38;;;;;;;;;;2076849;28;20033;-69
2023/09/01 02:16:28;;;;;;;2.08;1.90;;;;;;;;;;2080449;28;20034;-70
2023/09/01 02:17:46;;;;;;;3.00;2.03;;;;;;;;;;2077635;28;20030;-69
2023/09/01 02:19:09;;;;;;;3.22;2.45;;;;;;;;;;2078690;28;20026;-68
2023/09/01 02:20:30;;;;;;;6.18;2.58;;;;;;;;;;2077452;28;20025;-68
2023/09/01 02:21:49;;;;;;;2.10;2.00;;;;;;;;;;2078806;28;20418;-67
2023/09/01 02:23:08;;;;;;;5.53;2.45;;;;;;;;;;2078017;28;20502;-64
2023/09/01 02:24:27;;;;;;;5.95;2.65;;;;;;;;;;2073934;28;20045;-68
2023/09/01 02:25:46;;;;;;;3.10;2.25;;;;;;;;;;2076733;28;20022;-68
2023/09/01 02:27:05;;;;;;;8.18;2.72;;;;;;;;;;2066881;28;20427;-67
2023/09/01 02:28:24;;;;;;;2.80;2.17;;;;;;;;;;2073524;28;20462;-68
2023/09/01 02:29:43;;;;;;;5.47;2.05;;;;;;;;;;2073516;28;20136;-67
2023/09/01 02:31:07;;;;;;;2.42;1.85;;;;;;;;;;2078241;28;20069;-68
2023/09/01 02:32:26;;;;;;;4.28;1.88;;;;;;;;;;2075271;28;20025;-68
2023/09/01 02:33:45;;;;;;;3.88;1.90;;;;;;;;;;2081335;28;20034;-68
2023/09/01 02:35:06;;;;;;;4.30;2.15;;;;;;;;;;2077531;28;20025;-63
2023/09/01 02:36:29;;;;;;;3.33;2.17;;;;;;;;;;2077300;28;20022;-69
2023/09/01 02:37:49;;;;;;;4.70;1.83;;;;;;;;;;2077870;28;20013;-68
2023/09/01 02:39:08;;;;;;;3.97;2.10;;;;;;;;;;2069734;28;20030;-69
2023/09/01 02:40:26;;;;;;;3.55;2.00;;;;;;;;;;2075872;28;20502;-69
2023/09/01 02:41:45;;;;;;;3.58;2.05;;;;;;;;;;2079431;28;20038;-68
2023/09/01 02:43:04;;;;;;;4.20;2.13;;;;;;;;;;2077640;28;20460;-66
2023/09/01 02:44:23;;;;;;;3.75;1.90;;;;;;;;;;2076584;28;20421;-65
2023/09/01 02:45:42;;;;;;;6.05;1.80;;;;;;;;;;2078392;28;20041;-63
2023/09/01 02:47:03;;;;;;;2.38;1.73;;;;;;;;;;2078803;28;20029;-68
2023/09/01 02:48:22;;;;;;;3.00;1.90;;;;;;;;;;2078763;28;20029;-68
2023/09/01 02:49:41;;;;;;;7.28;2.47;;;;;;;;;;2079329;28;20119;-64
2023/09/01 02:51:00;;;;;;;5.65;1.77;;;;;;;;;;2080994;28;20042;-68
2023/09/01 02:52:19;;;;;;;3.47;1.70;;;;;;;;;;2077168;28;20034;-65
2023/09/01 02:53:38;;;;;;;1.98;1.75;;;;;;;;;;2077973;28;20486;-68
2023/09/01 02:54:57;;;;;;;1.70;1.60;;;;;;;;;;2072646;28;20057;-68
2023/09/01 02:56:17;;;;;;;3.10;1.73;;;;;;;;;;2077364;28;20025;-68
2023/09/01 02:57:36;;;;;;;2.15;1.92;;;;;;;;;;2078350;28;20033;-68
2023/09/01 02:58:55;;;;;;;2.00;1.90;;;;;;;;;;2076810;28;20048;-68
2023/09/01 03:00:17;;;;;;;4.50;1.73;;;;;;;;;;2077371;28;20108;-68
2023/09/01 03:01:36;;;;;;;3.28;1.60;;;;;;;;;;2078223;28;20037;-66
2023/09/01 03:02:56;;;;;;;1.73;1.63;;;;;;;;;;2078021;28;20029;-68
2023/09/01 03:04:15;;;;;;;3.13;1.83;;;;;;;;;;2078686;28;20042;-69
2023/09/01 03:05:35;;;;;;;1.83;1.70;;;;;;;;;;2079854;28;20017;-68
2023/09/01 03:06:55;;;;;;;1.90;1.80;;;;;;;;;;2079850;28;20168;-64
2023/09/01 03:08:14;;;;;;;2.38;1.50;;;;;;;;;;2075158;28;20034;-68
2023/09/01 03:09:33;;;;;;;1.80;1.60;;;;;;;;;;2078170;28;20033;-68
2023/09/01 03:10:52;;;;;;;3.05;1.88;;;;;;;;;;2079179;28;20029;-68
2023/09/01 03:12:11;;;;;;;2.20;1.40;;;;;;;;;;2076608;28;20053;-68
2023/09/01 03:13:30;;;;;;;2.35;1.77;;;;;;;;;;2077654;28;20114;-68
2023/09/01 03:14:49;;;;;;;2.22;1.15;;;;;;;;;;2070945;28;20089;-66
2023/09/01 03:16:08;;;;;;;6.85;1.75;;;;;;;;;;2075615;28;20033;-68
2023/09/01 03:17:27;;;;;;;2.38;1.58;;;;;;;;;;2079358;28;20022;-68
2023/09/01 03:18:46;;;;;;;1.75;1.38;;;;;;;;;;2079350;28;20930;-65
2023/09/01 03:20:05;;;;;;;4.68;1.73;;;;;;;;;;2078616;28;20053;-68
2023/09/01 03:21:26;;;;;;;3.28;1.40;;;;;;;;;;2078206;28;20565;-68
2023/09/01 03:22:45;;;;;;;8.60;1.65;;;;;;;;;;2077934;28;20043;-68
2023/09/01 03:24:04;;;;;;;2.90;1.50;;;;;;;;;;2080805;28;20033;-68
2023/09/01 03:25:23;;;;;;;3.08;1.88;;;;;;;;;;2079796;28;20025;-67
2023/09/01 03:26:42;;;;;;;1.63;1.52;;;;;;;;;;2077923;28;20087;-68
2023/09/01 03:28:02;;;;;;;1.55;1.45;;;;;;;;;;2078264;28;20025;-68
2023/09/01 03:29:21;;;;;;;1.98;1.70;;;;;;;;;;2066816;28;20109;-63
2023/09/01 03:30:40;;;;;;;1.88;1.35;;;;;;;;;;2074961;28;20148;-67
2023/09/01 03:31:59;;;;;;;2.28;1.50;;;;;;;;;;2080710;28;20482;-67
2023/09/01 03:33:18;;;;;;;1.48;1.35;;;;;;;;;;2079449;28;20026;-69
2023/09/01 03:34:37;;;;;;;1.70;1.60;;;;;;;;;;2078184;28;20030;-68
2023/09/01 03:35:59;;;;;;;1.52;1.42;;;;;;;;;;2080877;28;20382;-66
2023/09/01 03:37:19;;;;;;;1.50;1.40;;;;;;;;;;2077738;28;20317;-63
2023/09/01 03:38:38;;;;;;;2.22;1.55;;;;;;;;;;2075491;28;20038;-68
2023/09/01 03:39:57;;;;;;;2.28;1.40;;;;;;;;;;2078196;28;20018;-68
2023/09/01 03:41:16;;;;;;;5.45;1.55;;;;;;;;;;2067358;28;20029;-68
2023/09/01 03:42:39;;;;;;;2.05;1.42;;;;;;;;;;2075175;28;20025;-68
2023/09/01 03:43:57;;;;;;;3.33;1.83;;;;;;;;;;2078050;28;20687;-66
2023/09/01 03:45:16;;;;;;;8.35;1.60;;;;;;;;;;2076280;28;20484;-69
2023/09/01 03:46:35;;;;;;;1.38;1.27;;;;;;;;;;2076448;28;20045;-67
2023/09/01 03:47:54;;;;;;;1.88;1.67;;;;;;;;;;2078092;28;20351;-69
2023/09/01 03:49:13;;;;;;;3.65;1.60;;;;;;;;;;2079646;28;20025;-68
2023/09/01 03:50:33;;;;;;;2.25;1.70;;;;;;;;;;2077441;28;20037;-68
2023/09/01 03:51:52;;;;;;;3.03;1.35;;;;;;;;;;2079398;28;20108;-65
2023/09/01 03:53:11;;;;;;;5.88;1.55;;;;;;;;;;2077333;28;20038;-63
2023/09/01 03:54:31;;;;;;;4.65;1.65;;;;;;;;;;2077671;28;20029;-67
2023/09/01 03:55:50;;;;;;;3.22;1.80;;;;;;;;;;2078963;28;20021;-68
2023/09/01 03:57:09;;;;;;;1.63;1.50;;;;;;;;;;2076085;28;20149;-69
2023/09/01 03:58:28;;;;;;;4.30;1.65;;;;;;;;;;2077832;28;20482;-68
2023/09/01 03:59:49;;;;;;;2.55;1.92;;;;;;;;;;2078971;28;20026;-69
2023/09/01 04:01:08;;;;;;;3.33;1.50;;;;;;;;;;2075340;28;20025;-68
2023/09/01 04:02:27;;;;;;;2.45;1.20;;;;;;;;;;2076957;28;20034;-68
2023/09/01 04:03:47;;;;;;;3.90;1.58;;;;;;;;;;2078523;28;20034;-68
2023/09/01 04:05:05;;;;;;;4.63;1.95;;;;;;;;;;2078323;28;20045;-68
2023/09/01 04:06:24;;;;;;;2.97;1.80;;;;;;;;;;2075607;28;20625;-68
2023/09/01 04:07:43;;;;;;;2.10;1.50;;;;;;;;;;2074739;28;20033;-68
2023/09/01 04:09:03;;;;;;;5.28;1.95;;;;;;;;;;2076700;28;20026;-69
2023/09/01 04:10:22;;;;;;;1.70;1.60;;;;;;;;;;2076278;28;20025;-67
2023/09/01 04:11:41;;;;;;;3.08;2.10;;;;;;;;;;2075778;28;20030;-68
2023/09/01 04:13:01;;;;;;;2.47;2.17;;;;;;;;;;2076957;28;20026;-67
2023/09/01 04:14:19;;;;;;;2.10;1.63;;;;;;;;;;2077239;28;20156;-67
2023/09/01 04:15:39;;;;;;;6.38;1.90;;;;;;;;;;2076277;28;20029;-68
2023/09/01 04:16:57;;;;;;;2.08;1.85;;;;;;;;;;2068633;28;20062;-63
2023/09/01 04:18:17;;;;;;;2.35;1.83;;;;;;;;;;2072502;28;20049;-70
2023/09/01 04:19:35;;;;;;;3.90;1.80;;;;;;;;;;2078453;28;20025;-68
2023/09/01 04:20:55;;;;;;;2.13;1.95;;;;;;;;;;2078088;28;20053;-64
2023/09/01 04:22:14;;;;;;;4.07;1.75;;;;;;;;;;2077658;28;20022;-68
2023/09/01 04:23:33;;;;;;;2.30;1.95;;;;;;;;;;2077478;28;20041;-68
2023/09/01 04:24:51;;;;;;;1.75;1.65;;;;;;;;;;2078167;28;20037;-69
2023/09/01 04:26:11;;;;;;;2.55;1.83;;;;;;;;;;2076763;28;20212;-67
2023/09/01 04:27:30;;;;;;;2.95;2.10;;;;;;;;;;2076447;28;20041;-66
2023/09/01 04:28:49;;;;;;;2.53;1.98;;;;;;;;;;2079161;28;20390;-65
2023/09/01 04:30:08;;;;;;;3.88;1.95;;;;;;;;;;2077553;28;20065;-69
2023/09/01 04:31:28;;;;;;;4.38;2.25;;;;;;;;;;2079171;28;20030;-69
2023/09/01 04:32:46;;;;;;;2.05;1.95;;;;;;;;;;2078344;28;20021;-68
2023/09/01 04:34:06;;;;;;;3.70;2.60;;;;;;;;;;2076688;28;20034;-68
2023/09/01 04:35:24;;;;;;;3.03;2.13;;;;;;;;;;2076473;28;20026;-67
2023/09/01 04:36:43;;;;;;;3.28;1.80;;;;;;;;;;2078585;28;20482;-67
2023/09/01 04:38:03;;;;;;;3.13;2.85;;;;;;;;;;2077171;28;21149;-67
2023/09/01 04:39:22;;;;;;;2.80;2.45;;;;;;;;;;2077546;28;20017;-66
2023/09/01 04:40:40;;;;;;;3.67;2.20;;;;;;;;;;2076698;28;20025;-68
2023/09/01 04:42:00;;;;;;;4.25;2.50;;;;;;;;;;2077963;28;20033;-67
2023/09/01 04:43:20;;;;;;;4.20;1.92;;;;;;;;;;2079321;28;20033;-68
2023/09/01 04:44:40;;;;;;;3.55;1.95;;;;;;;;;;2075646;28;20061;-67
2023/09/01 04:45:59;;;;;;;2.45;1.90;;;;;;;;;;2076717;28;20191;-67
2023/09/01 04:47:18;;;;;;;4.20;2.15;;;;;;;;;;2073028;28;20025;-64
2023/09/01 04:48:37;;;;;;;5.70;3.70;;;;;;;;;;2075506;28;20696;-68
2023/09/01 04:49:55;;;;;;;3.25;2.70;;;;;;;;;;2079183;28;20041;-65
2023/09/01 04:51:14;;;;;;;6.53;2.47;;;;;;;;;;2074838;28;20037;-67
2023/09/01 04:52:33;;;;;;;4.55;2.22;;;;;;;;;;2076850;28;20147;-67
2023/09/01 04:53:52;;;;;;;14.70;8.40;;;;;;;;;;2077885;28;20029;-67
2023/09/01 04:55:11;;;;;;;2.38;2.28;;;;;;;;;;2074560;28;20018;-67
2023/09/01 04:56:32;;;;;;;2.10;2.00;;;;;;;;;;2075186;28;20037;-67
2023/09/01 04:57:51;;;;;;;5.35;2.25;;;;;;;;;;2077646;28;20034;-67
2023/09/01 04:59:10;;;;;;;3.92;1.90;;;;;;;;;;2078043;28;20029;-66
2023/09/01 05:00:29;;;;;;;2.55;2.35;;;;;;;;;;2075845;28;20441;-60
2023/09/01 05:01:49;;;;;;;2.13;1.92;;;;;;;;;;2078063;28;20037;-67
2023/09/01 05:03:08;;;;;;;2.63;1.83;;;;;;;;;;2077666;28;20124;-66
2023/09/01 05:04:27;;;;;;;2.58;1.83;;;;;;;;;;2077674;28;20059;-68
2023/09/01 05:05:46;;;;;;;5.75;2.38;;;;;;;;;;2073827;28;20033;-67
2023/09/01 05:07:05;;;;;;;8.00;3.28;;;;;;;;;;2077912;28;20509;-66
2023/09/01 05:08:24;;;;;;;2.60;2.25;;;;;;;;;;2079876;28;20133;-67
2023/09/01 05:09:43;;;;;;;4.38;1.77;;;;;;;;;;2079286;28;20029;-67
2023/09/01 05:11:02;;;;;;;3.92;2.20;;;;;;;;;;2077031;28;20112;-67
2023/09/01 05:12:21;;;;;;;3.25;1.98;;;;;;;;;;2077366;28;20140;-65
2023/09/01 05:13:40;;;;;;;1.80;1.70;;;;;;;;;;2078341;28;20568;-68
2023/09/01 05:14:59;;;;;;;2.50;2.22;;;;;;;;;;2076479;28;20021;-64
2023/09/01 05:16:18;;;;;;;3.30;1.83;;;;;;;;;;2078217;28;20482;-66
2023/09/01 05:17:37;;;;;;;2.30;2.10;;;;;;;;;;2075038;28;20041;-67
2023/09/01 05:18:56;;;;;;;2.78;2.30;;;;;;;;;;2076590;28;20022;-66
2023/09/01 05:20:15;;;;;;;4.45;2.35;;;;;;;;;;2075985;28;20026;-67
2023/09/01 05:21:34;;;;;;;2.70;2.50;;;;;;;;;;2078049;28;20519;-68
2023/09/01 05:22:53;;;;;;;3.35;2.40;;;;;;;;;;2073482;28;20029;-67
2023/09/01 05:24:12;;;;;;;3.85;2.53;;;;;;;;;;2075638;28;20030;-67
2023/09/01 05:25:31;;;;;;;2.45;2.30;;;;;;;;;;2072926;28;20033;-65
2023/09/01 05:26:50;;;;;;;3.80;2.63;;;;;;;;;;2075205;28;20025;-68
2023/09/01 05:28:09;;;;;;;3.47;2.47;;;;;;;;;;2077153;28;20033;-68
2023/09/01 05:29:30;;;;;;;3.00;2.80;;;;;;;;;;2075397;28;20642;-68
2023/09/01 05:30:49;;;;;;;3.13;2.92;;;;;;;;;;2076572;28;20081;-68
2023/09/01 05:32:08;;;;;;;5.60;3.05;;;;;;;;;;2077138;28;20033;-68
2023/09/01 05:33:27;;;;;;;2.70;2.50;;;;;;;;;;2076516;28;20026;-64
2023/09/01 05:34:46;;;;;;;3.90;2.58;;;;;;;;;;2076267;28;20059;-64
2023/09/01 05:36:05;;;;;;;3.53;2.83;;;;;;;;;;2075359;28;20029;-64
2023/09/01 05:37:24;;;;;;;3.08;2.75;;;;;;;;;;2072734;28;20026;-66
2023/09/01 05:38:43;;;;;;;3.10;2.80;;;;;;;;;;2072441;28;20022;-68
2023/09/01 05:40:03;;;;;;;2.97;2.75;;;;;;;;;;2074713;28;20029;-63
2023/09/01 05:41:21;;;;;;;3.10;2.72;;;;;;;;;;2077925;28;20030;-67
2023/09/01 05:42:40;;;;;;;4.05;2.90;;;;;;;;;;2076226;28;20033;-68
2023/09/01 05:43:59;;;;;;;6.03;3.20;;;;;;;;;;2075528;28;20025;-67
2023/09/01 05:45:18;;;;;;;5.47;3.10;;;;;;;;;;2074764;28;20033;-68
2023/09/01 05:46:37;;;;;;;5.63;2.70;;;;;;;;;;2063423;28;20037;-65
2023/09/01 05:47:56;;;;;;;4.47;2.63;;;;;;;;;;2072274;28;20118;-68
2023/09/01 05:49:16;;;;;;;5.72;3.35;;;;;;;;;;2072834;28;20080;-67
2023/09/01 05:50:35;;;;;;;6.00;3.05;;;;;;;;;;2063886;28;20034;-67
2023/09/01 05:51:53;;;;;;;10.30;3.25;;;;;;;;;;2072381;28;20065;-67
2023/09/01 05:53:12;;;;;;;6.60;3.50;;;;;;;;;;2076818;28;20541;-66
2023/09/01 05:54:31;;;;;;;5.35;3.17;;;;;;;;;;2075496;28;20022;-62
2023/09/01 05:55:50;;;;;;;4.47;3.22;;;;;;;;;;2076822;28;20049;-67
2023/09/01 05:57:09;;;;;;;3.47;3.17;;;;;;;;;;2077346;28;20025;-66
2023/09/01 05:58:29;;;;;;;4.55;3.20;;;;;;;;;;2063973;28;20026;-67
2023/09/01 05:59:48;;;;;;;5.07;4.00;;;;;;;;;;2070016;28;20030;-67
2023/09/01 06:01:07;;;;;;;3.65;3.08;;;;;;;;;;2070497;28;20022;-62
2023/09/01 06:02:26;;;;;;;6.68;3.28;;;;;;;;;;2075795;28;20033;-67
2023/09/01 06:03:45;;;;;;;5.93;3.50;;;;;;;;;;2077062;28;20497;-68
2023/09/01 06:05:05;;;;;;;3.70;3.40;;;;;;;;;;2077151;28;20537;-67
2023/09/01 06:06:24;;;;;;;5.10;3.35;;;;;;;;;;2075633;28;20029;-66
2023/09/01 06:07:43;;;;;;;5.15;3.50;;;;;;;;;;2075680;28;20034;-67
2023/09/01 06:09:04;;;;;;;5.75;3.67;;;;;;;;;;2080237;28;20034;-72
2023/09/01 06:10:23;;;;;;;5.32;3.80;;;;;;;;;;2077478;28;20041;-70
2023/09/01 06:11:41;;;;;;;6.07;4.07;;;;;;;;;;2078169;28;20021;-71
2023/09/01 06:13:00;;;;;;;4.93;3.83;;;;;;;;;;2078857;28;20026;-70
2023/09/01 06:14:19;;;;;;;3.78;3.20;;;;;;;;;;2078638;28;20478;-68
2023/09/01 06:15:39;;;;;;;4.70;3.13;;;;;;;;;;2076264;28;20053;-69
2023/09/01 06:16:58;;;;;;;5.15;3.70;;;;;;;;;;2079488;28;20025;-68
2023/09/01 06:18:17;;;;;;;6.18;3.50;;;;;;;;;;2079640;28;20388;-68
2023/09/01 06:19:36;;;;;;;6.38;3.50;;;;;;;;;;2078484;28;20030;-69
2023/09/01 06:20:55;;;;;;;6.00;3.33;;;;;;;;;;2076323;28;20081;-68
2023/09/01 06:22:14;;;;;;;4.90;3.75;;;;;;;;;;2077009;28;20160;-68
2023/09/01 06:23:34;;;;;;;6.32;3.47;;;;;;;;;;2076887;28;20551;-69
2023/09/01 06:24:53;;;;;;;3.53;3.22;;;;;;;;;;2072966;28;20414;-63
2023/09/01 06:26:13;;;;;;;4.43;4.03;;;;;;;;;;2075888;28;20026;-69
2023/09/01 06:27:34;;;;;;;6.30;4.28;;;;;;;;;;2077635;28;20034;-69
2023/09/01 06:28:53;;;;;;;7.50;4.40;;;;;;;;;;2077481;28;20041;-68
2023/09/01 06:30:12;;;;;;;6.97;4.65;;;;;;;;;;2075995;28;20026;-71
2023/09/01 06:31:31;;;;;;;5.45;4.38;;;;;;;;;;2077707;28;20543;-69
2023/09/01 06:32:49;;;;;;;6.90;4.30;;;;;;;;;;2075990;28;20491;-70
2023/09/01 06:34:09;;;;;;;4.18;3.83;;;;;;;;;;2073643;28;20025;-65
2023/09/01 06:35:28;;;;;;;5.25;3.88;;;;;;;;;;2078254;28;20736;-71
2023/09/01 06:36:47;;;;;;;5.47;4.18;;;;;;;;;;2077304;28;20445;-69
2023/09/01 06:38:06;;;;;;;9.02;4.88;;;;;;;;;;2076622;28;20038;-69
2023/09/01 06:39:25;;;;;;;9.27;4.75;;;;;;;;;;2077256;28;20128;-70
2023/09/01 06:40:44;;;;;;;5.53;3.97;;;;;;;;;;2078772;28;20074;-69
2023/09/01 06:42:03;;;;;;;9.10;4.15;;;;;;;;;;2080479;28;20033;-69
2023/09/01 06:43:22;;;;;;;9.88;4.88;;;;;;;;;;2079703;28;20029;-67
2023/09/01 06:44:41;;;;;;;5.20;4.63;;;;;;;;;;2078401;28;20120;-70
2023/09/01 06:46:00;;;;;;;5.20;4.68;;;;;;;;;;2079914;28;20041;-69
2023/09/01 06:47:19;;;;;;;4.95;4.55;;;;;;;;;;2079394;28;20030;-69
2023/09/01 06:48:38;;;;;;;9.52;4.40;;;;;;;;;;2077824;28;20033;-69
2023/09/01 06:49:56;;;;;;;11.75;5.32;;;;;;;;;;2079144;28;20104;-67
2023/09/01 06:51:15;;;;;;;6.97;5.38;;;;;;;;;;2078811;28;20037;-69
2023/09/01 06:52:34;;;;;;;8.20;4.72;;;;;;;;;;2080001;28;20021;-70
2023/09/01 06:53:53;;;;;;;8.10;5.03;;;;;;;;;;2077797;28;20026;-69
2023/09/01 06:55:12;;;;;;;6.63;4.95;;;;;;;;;;2078790;28;20029;-68
2023/09/01 06:56:31;;;;;;;5.07;4.68;;;;;;;;;;2077622;28;20033;-71
2023/09/01 06:57:51;;;;;;;8.32;5.65;;;;;;;;;;2071604;28;20069;-66
2023/09/01 06:59:09;;;;;;;6.85;4.97;;;;;;;;;;2075317;28;20025;-70
2023/09/01 07:00:31;;;;;;;5.40;4.80;;;;;;;;;;2077456;28;20551;-70
2023/09/01 07:01:50;;;;;;;5.30;4.80;;;;;;;;;;2078611;28;20474;-69
2023/09/01 07:03:09;;;;;;;5.47;4.53;;;;;;;;;;2077291;28;20075;-66
2023/09/01 07:04:28;;;;;;;6.50;4.57;;;;;;;;;;2080364;28;20033;-67
2023/09/01 07:05:57;;;;;;;7.07;5.25;;;;;;;;;;2079026;28;20065;-69
2023/09/01 07:07:16;;;;;;;9.27;5.15;;;;;;;;;;2077684;28;20045;-69
2023/09/01 07:08:35;;;;;;;5.97;5.47;;;;;;;;;;2077675;28;20037;-70
2023/09/01 07:09:54;;;;;;;10.50;5.50;;;;;;;;;;2078843;28;20042;-70
2023/09/01 07:11:14;;;;;;;11.10;5.93;;;;;;;;;;2080268;28;20522;-70
2023/09/01 07:12:33;;;;;;;5.15;4.65;;;;;;;;;;2079131;28;20042;-70
2023/09/01 07:13:52;;;;;;;5.70;5.20;;;;;;;;;;2077862;28;20025;-70
2023/09/01 07:15:11;;;;;;;10.05;5.35;;;;;;;;;;2077674;28;20037;-70
2023/09/01 07:16:30;;;;;;;6.15;5.25;;;;;;;;;;2071339;28;20026;-69
2023/09/01 07:17:49;;;;;;;5.45;4.95;;;;;;;;;;2077039;28;20033;-70
2023/09/01 07:19:08;;;;;;;8.90;5.95;;;;;;;;;;2080247;28;20030;-70
2023/09/01 07:20:26;;;;;;;8.52;5.88;;;;;;;;;;2079880;28;20042;-70
2023/09/01 07:21:45;;;;;;;7.90;5.88;;;;;;;;;;2079139;28;20034;-70
2023/09/01 07:23:04;;;;;;;8.70;5.70;;;;;;;;;;2079892;28;20063;-70
2023/09/01 07:24:23;;;;;;;5.13;4.82;;;;;;;;;;2077377;28;20674;-69
2023/09/01 07:25:44;;;;;;;5.55;4.80;;;;;;;;;;2079872;28;20104;-71
2023/09/01 07:27:05;;;;;;;8.90;5.68;;;;;;;;;;2080047;28;20501;-71
2023/09/01 07:28:24;;;;;;;6.70;5.20;;;;;;;;;;2077696;28;20544;-69
2023/09/01 07:29:48;;;;;;;7.57;5.40;;;;;;;;;;2078523;28;20415;-71
2023/09/01 07:31:12;;;;;;;6.63;5.13;;;;;;;;;;2070510;28;20545;-71
2023/09/01 07:32:32;;;;;;;5.95;5.18;;;;;;;;;;2073203;28;20034;-69
2023/09/01 07:33:51;;;;;;;6.25;5.15;;;;;;;;;;2076794;28;21040;-67
2023/09/01 07:35:09;;;;;;;6.00;5.45;;;;;;;;;;2078250;28;20030;-71
2023/09/01 07:36:28;;;;;;;8.23;5.88;;;;;;;;;;2079903;28;20030;-71
2023/09/01 07:37:47;;;;;;;6.93;4.95;;;;;;;;;;2079664;28;20030;-62
2023/09/01 07:39:06;;;;;;;5.22;4.70;;;;;;;;;;2079674;28;20037;-72
2023/09/01 07:40:27;;;;;;;7.07;5.28;;;;;;;;;;2080020;28;20033;-70
2023/09/01 07:41:48;;;;;;;8.48;5.13;;;;;;;;;;2078189;28;20070;-70
2023/09/01 07:43:07;;;;;;;7.25;5.43;;;;;;;;;;2081167;28;20029;-69
2023/09/01 07:44:26;;;;;;;5.88;5.15;;;;;;;;;;2079159;28;20339;-71
2023/09/01 07:45:45;;;;;;;6.75;5.55;;;;;;;;;;2078968;28;20395;-71
2023/09/01 07:47:04;;;;;;;11.55;6.78;;;;;;;;;;2078043;28;20033;-70
2023/09/01 07:48:23;;;;;;;7.90;5.68;;;;;;;;;;2077412;28;20490;-71
2023/09/01 07:49:42;;;;;;;7.40;5.80;;;;;;;;;;2078409;28;20124;-71
2023/09/01 07:51:01;;;;;;;5.78;5.38;;;;;;;;;;2069516;28;20414;-67
2023/09/01 07:52:20;;;;;;;5.53;5.03;;;;;;;;;;2064068;28;20494;-69
2023/09/01 07:53:39;;;;;;;11.63;6.93;;;;;;;;;;2074073;28;20088;-71
2023/09/01 07:54:57;;;;;;;6.18;5.43;;;;;;;;;;2072340;28;20029;-71
2023/09/01 07:56:16;;;;;;;6.00;5.40;;;;;;;;;;2077143;28;20102;-68
2023/09/01 07:57:36;;;;;;;5.90;5.30;;;;;;;;;;2076581;28;20037;-68